sensor_id;sensor_type;location;lat;lon;timestamp;pressure;altitude;pressure_sealevel;temperature;humidity
75157;BME280;63736;50.076;8.198;2023-02-01T00:01:09;100011.63;;;5.39;100.00
75157;BME280;63736;50.076;8.198;2023-02-01T00:03:34;100012.72;;;5.35;100.00
75157;BME280;63736;50.076;8.198;2023-02-01T00:05:59;100007.66;;;5.30;100.00
75157;BME280;63736;50.076;8.198;2023-02-01T00:08:26;100013.94;;;5.29;100.00
75157;BME280;63736;50.076;8.198;2023-02-01T00:11:17;100015.56;;;5.32;100.00
75157;BME280;63736;50.076;8.198;2023-02-01T00:13:42;100016.41;;;5.33;100.00
75157;BME280;63736;50.076;8.198;2023-02-01T00:16:15;100014.53;;;5.35;100.00
75157;BME280;63736;50.076;8.198;2023-02-01T00:18:42;100009.22;;;5.35;100.00
75157;BME280;63736;50.076;8.198;2023-02-01T00:21:08;100013.75;;;5.33;100.00
75157;BME280;63736;50.076;8.198;2023-02-01T00:23:35;100001.63;;;5.28;100.00
75157;BME280;63736;50.076;8.198;2023-02-01T00:26:02;99996.41;;;5.27;100.00
75157;BME280;63736;50.076;8.198;2023-02-01T00:28:27;99985.81;;;5.27;100.00
75157;BME280;63736;50.076;8.198;2023-02-01T00:31:03;99996.41;;;5.27;100.00
75157;BME280;63736;50.076;8.198;2023-02-01T00:33:29;100000.00;;;5.26;100.00
75157;BME280;63736;50.076;8.198;2023-02-01T00:35:59;100000.81;;;5.26;100.00
75157;BME280;63736;50.076;8.198;2023-02-01T00:38:26;99999.91;;;5.27;100.00
75157;BME280;63736;50.076;8.198;2023-02-01T00:40:51;99996.31;;;5.28;100.00
75157;BME280;63736;50.076;8.198;2023-02-01T00:43:16;99999.81;;;5.29;100.00
75157;BME280;63736;50.076;8.198;2023-02-01T00:45:42;100005.19;;;5.27;100.00
75157;BME280;63736;50.076;8.198;2023-02-01T00:48:07;99997.25;;;5.27;100.00
75157;BME280;63736;50.076;8.198;2023-02-01T00:50:32;100003.31;;;5.29;100.00
75157;BME280;63736;50.076;8.198;2023-02-01T00:52:58;100008.53;;;5.31;100.00
75157;BME280;63736;50.076;8.198;2023-02-01T00:55:23;100012.81;;;5.34;100.00
75157;BME280;63736;50.076;8.198;2023-02-01T00:57:48;100009.22;;;5.35;100.00
75157;BME280;63736;50.076;8.198;2023-02-01T01:00:14;100011.69;;;5.38;100.00
75157;BME280;63736;50.076;8.198;2023-02-01T01:02:41;100009.84;;;5.40;100.00
75157;BME280;63736;50.076;8.198;2023-02-01T01:05:06;100015.03;;;5.41;100.00
75157;BME280;63736;50.076;8.198;2023-02-01T01:07:32;100004.44;;;5.41;100.00
75157;BME280;63736;50.076;8.198;2023-02-01T01:09:57;100004.34;;;5.43;100.00
75157;BME280;63736;50.076;8.198;2023-02-01T01:12:22;100014.88;;;5.44;100.00
75157;BME280;63736;50.076;8.198;2023-02-01T01:14:48;100011.28;;;5.45;100.00
75157;BME280;63736;50.076;8.198;2023-02-01T01:17:13;100002.41;;;5.46;100.00
75157;BME280;63736;50.076;8.198;2023-02-01T01:19:38;100003.25;;;5.47;100.00
75157;BME280;63736;50.076;8.198;2023-02-01T01:22:03;99997.00;;;5.48;100.00
75157;BME280;63736;50.076;8.198;2023-02-01T01:30:20;99998.53;;;5.52;100.00
75157;BME280;63736;50.076;8.198;2023-02-01T01:32:45;100002.81;;;5.55;100.00
75157;BME280;63736;50.076;8.198;2023-02-01T01:35:11;99998.47;;;5.54;100.00
75157;BME280;63736;50.076;8.198;2023-02-01T01:37:36;100000.09;;;5.56;100.00
75157;BME280;63736;50.076;8.198;2023-02-01T01:40:04;99990.44;;;5.55;100.00
75157;BME280;63736;50.076;8.198;2023-02-01T01:42:29;99990.50;;;5.54;100.00
75157;BME280;63736;50.076;8.198;2023-02-01T01:45:05;99986.94;;;5.55;100.00
75157;BME280;63736;50.076;8.198;2023-02-01T01:47:41;99987.84;;;5.54;100.00
75157;BME280;63736;50.076;8.198;2023-02-01T01:50:11;100002.91;;;5.53;100.00
75157;BME280;63736;50.076;8.198;2023-02-01T01:52:37;100002.13;;;5.51;100.00
75157;BME280;63736;50.076;8.198;2023-02-01T01:55:04;100009.25;;;5.51;100.00
75157;BME280;63736;50.076;8.198;2023-02-01T01:57:33;100004.78;;;5.51;100.00
75157;BME280;63736;50.076;8.198;2023-02-01T02:02:30;99991.53;;;5.51;100.00
75157;BME280;63736;50.076;8.198;2023-02-01T02:04:55;99987.94;;;5.52;100.00
75157;BME280;63736;50.076;8.198;2023-02-01T02:07:24;99971.31;;;5.50;100.00
75157;BME280;63736;50.076;8.198;2023-02-01T02:09:50;99964.44;;;5.46;100.00
75157;BME280;63736;50.076;8.198;2023-02-01T02:12:16;99960.16;;;5.43;100.00
75157;BME280;63736;50.076;8.198;2023-02-01T02:14:41;99956.66;;;5.43;100.00
75157;BME280;63736;50.076;8.198;2023-02-01T02:17:19;99959.41;;;5.41;100.00
75157;BME280;63736;50.076;8.198;2023-02-01T02:25:50;99958.53;;;5.41;100.00
75157;BME280;63736;50.076;8.198;2023-02-01T02:28:51;99950.69;;;5.39;100.00
75157;BME280;63736;50.076;8.198;2023-02-01T02:34:26;99963.19;;;5.37;100.00
75157;BME280;63736;50.076;8.198;2023-02-01T02:45:50;99961.59;;;5.33;100.00
75157;BME280;63736;50.076;8.198;2023-02-01T02:48:43;99968.63;;;5.34;100.00
75157;BME280;63736;50.076;8.198;2023-02-01T02:51:14;99958.91;;;5.35;100.00
75157;BME280;63736;50.076;8.198;2023-02-01T02:54:10;99963.31;;;5.34;100.00
75157;BME280;63736;50.076;8.198;2023-02-01T02:56:56;99963.22;;;5.36;100.00
75157;BME280;63736;50.076;8.198;2023-02-01T02:59:44;99962.31;;;5.37;100.00
75157;BME280;63736;50.076;8.198;2023-02-01T03:02:30;99964.09;;;5.36;100.00
75157;BME280;63736;50.076;8.198;2023-02-01T03:05:14;99954.25;;;5.38;100.00
75157;BME280;63736;50.076;8.198;2023-02-01T03:10:20;99959.31;;;5.43;100.00
75157;BME280;63736;50.076;8.198;2023-02-01T03:12:49;99948.63;;;5.44;100.00
75157;BME280;63736;50.076;8.198;2023-02-01T03:15:26;99950.34;;;5.45;100.00
75157;BME280;63736;50.076;8.198;2023-02-01T03:17:55;99937.00;;;5.47;100.00
75157;BME280;63736;50.076;8.198;2023-02-01T03:20:24;99936.06;;;5.48;100.00
75157;BME280;63736;50.076;8.198;2023-02-01T03:22:51;99923.66;;;5.49;100.00
75157;BME280;63736;50.076;8.198;2023-02-01T03:25:22;99928.13;;;5.48;100.00
75157;BME280;63736;50.076;8.198;2023-02-01T03:27:52;99935.22;;;5.48;100.00
75157;BME280;63736;50.076;8.198;2023-02-01T03:30:28;99923.66;;;5.49;100.00
75157;BME280;63736;50.076;8.198;2023-02-01T03:32:57;99925.47;;;5.48;100.00
75157;BME280;63736;50.076;8.198;2023-02-01T03:38:42;99914.97;;;5.46;100.00
75157;BME280;63736;50.076;8.198;2023-02-01T03:41:26;99921.19;;;5.45;100.00
75157;BME280;63736;50.076;8.198;2023-02-01T03:44:04;99921.28;;;5.44;100.00
75157;BME280;63736;50.076;8.198;2023-02-01T03:46:39;99920.59;;;5.40;100.00
75157;BME280;63736;50.076;8.198;2023-02-01T03:49:09;99916.16;;;5.41;100.00
75157;BME280;63736;50.076;8.198;2023-02-01T03:51:38;99913.50;;;5.41;100.00
75157;BME280;63736;50.076;8.198;2023-02-01T03:54:07;99912.66;;;5.40;100.00
75157;BME280;63736;50.076;8.198;2023-02-01T03:56:36;99919.69;;;5.41;100.00
75157;BME280;63736;50.076;8.198;2023-02-01T03:59:03;99918.75;;;5.42;100.00
75157;BME280;63736;50.076;8.198;2023-02-01T04:01:30;99921.38;;;5.42;100.00
75157;BME280;63736;50.076;8.198;2023-02-01T04:03:56;99924.09;;;5.41;100.00
75157;BME280;63736;50.076;8.198;2023-02-01T04:06:22;99923.25;;;5.40;100.00
75157;BME280;63736;50.076;8.198;2023-02-01T04:08:48;99929.50;;;5.39;100.00
75157;BME280;63736;50.076;8.198;2023-02-01T04:11:13;99924.38;;;5.36;100.00
75157;BME280;63736;50.076;8.198;2023-02-01T04:13:38;99924.19;;;5.39;100.00
75157;BME280;63736;50.076;8.198;2023-02-01T04:16:04;99937.53;;;5.38;100.00
75157;BME280;63736;50.076;8.198;2023-02-01T04:18:30;99920.59;;;5.40;100.00
75157;BME280;63736;50.076;8.198;2023-02-01T04:20:55;99929.25;;;5.44;100.00
75157;BME280;63736;50.076;8.198;2023-02-01T04:23:20;99922.03;;;5.46;100.00
75157;BME280;63736;50.076;8.198;2023-02-01T04:25:46;99922.81;;;5.48;100.00
75157;BME280;63736;50.076;8.198;2023-02-01T04:28:11;99927.09;;;5.51;100.00
75157;BME280;63736;50.076;8.198;2023-02-01T04:30:37;99927.09;;;5.51;100.00
75157;BME280;63736;50.076;8.198;2023-02-01T04:33:02;99921.72;;;5.52;100.00
75157;BME280;63736;50.076;8.198;2023-02-01T04:35:30;99929.56;;;5.54;100.00
75157;BME280;63736;50.076;8.198;2023-02-01T04:37:55;99928.63;;;5.55;100.00
75157;BME280;63736;50.076;8.198;2023-02-01T04:40:20;99921.56;;;5.55;100.00
75157;BME280;63736;50.076;8.198;2023-02-01T04:42:46;99925.03;;;5.56;100.00
75157;BME280;63736;50.076;8.198;2023-02-01T04:45:11;99929.41;;;5.57;100.00
75157;BME280;63736;50.076;8.198;2023-02-01T04:47:37;99923.22;;;5.56;100.00
75157;BME280;63736;50.076;8.198;2023-02-01T04:50:02;99928.53;;;5.56;100.00
75157;BME280;63736;50.076;8.198;2023-02-01T04:52:27;99924.00;;;5.58;100.00
75157;BME280;63736;50.076;8.198;2023-02-01T04:54:53;99915.19;;;5.58;100.00
75157;BME280;63736;50.076;8.198;2023-02-01T04:57:19;99916.16;;;5.57;100.00
75157;BME280;63736;50.076;8.198;2023-02-01T04:59:44;99910.94;;;5.55;100.00
75157;BME280;63736;50.076;8.198;2023-02-01T05:02:10;99906.69;;;5.53;100.00
75157;BME280;63736;50.076;8.198;2023-02-01T05:04:35;99929.56;;;5.54;100.00
75157;BME280;63736;50.076;8.198;2023-02-01T05:07:00;99916.41;;;5.52;100.00
75157;BME280;63736;50.076;8.198;2023-02-01T05:09:25;99922.50;;;5.54;100.00
75157;BME280;63736;50.076;8.198;2023-02-01T05:11:51;99907.53;;;5.53;100.00
75157;BME280;63736;50.076;8.198;2023-02-01T05:14:34;99896.00;;;5.54;100.00
75157;BME280;63736;50.076;8.198;2023-02-01T05:17:00;99888.88;;;5.55;100.00
75157;BME280;63736;50.076;8.198;2023-02-01T05:19:25;99890.69;;;5.54;100.00
75157;BME280;63736;50.076;8.198;2023-02-01T05:21:50;99888.88;;;5.55;100.00
75157;BME280;63736;50.076;8.198;2023-02-01T05:24:15;99895.13;;;5.54;100.00
75157;BME280;63736;50.076;8.198;2023-02-01T05:26:48;99899.56;;;5.53;100.00
75157;BME280;63736;50.076;8.198;2023-02-01T05:29:14;99899.56;;;5.53;100.00
75157;BME280;63736;50.076;8.198;2023-02-01T05:31:40;99897.84;;;5.52;100.00
75157;BME280;63736;50.076;8.198;2023-02-01T05:34:06;99909.38;;;5.51;100.00
75157;BME280;63736;50.076;8.198;2023-02-01T05:36:31;99911.19;;;5.51;100.00
75157;BME280;63736;50.076;8.198;2023-02-01T05:38:57;99901.53;;;5.50;100.00
75157;BME280;63736;50.076;8.198;2023-02-01T05:41:22;99907.78;;;5.49;100.00
75157;BME280;63736;50.076;8.198;2023-02-01T05:43:47;99910.50;;;5.47;100.00
75157;BME280;63736;50.076;8.198;2023-02-01T05:46:13;99905.31;;;5.45;100.00
75157;BME280;63736;50.076;8.198;2023-02-01T05:48:39;99908.13;;;5.42;100.00
75157;BME280;63736;50.076;8.198;2023-02-01T05:51:05;99908.38;;;5.38;100.00
75157;BME280;63736;50.076;8.198;2023-02-01T05:53:30;99908.81;;;5.30;100.00
75157;BME280;63736;50.076;8.198;2023-02-01T05:55:56;99913.00;;;5.18;100.00
75157;BME280;63736;50.076;8.198;2023-02-01T05:58:21;99921.78;;;5.03;100.00
75157;BME280;63736;50.076;8.198;2023-02-01T06:00:46;99920.66;;;4.91;100.00
75157;BME280;63736;50.076;8.198;2023-02-01T06:03:11;99916.63;;;4.84;100.00
75157;BME280;63736;50.076;8.198;2023-02-01T06:05:37;99916.03;;;4.78;100.00
75157;BME280;63736;50.076;8.198;2023-02-01T06:08:02;99912.63;;;4.76;100.00
75157;BME280;63736;50.076;8.198;2023-02-01T06:10:27;99918.50;;;4.66;100.00
75157;BME280;63736;50.076;8.198;2023-02-01T06:12:53;99914.63;;;4.55;100.00
75157;BME280;63736;50.076;8.198;2023-02-01T06:15:18;99917.06;;;4.42;100.00
75157;BME280;63736;50.076;8.198;2023-02-01T06:17:44;99920.41;;;4.28;100.00
75157;BME280;63736;50.076;8.198;2023-02-01T06:20:11;99910.53;;;4.14;100.00
75157;BME280;63736;50.076;8.198;2023-02-01T06:22:37;99910.38;;;4.00;100.00
75157;BME280;63736;50.076;8.198;2023-02-01T06:25:05;99915.50;;;3.86;100.00
75157;BME280;63736;50.076;8.198;2023-02-01T06:27:30;99918.69;;;3.75;100.00
75157;BME280;63736;50.076;8.198;2023-02-01T06:29:56;99924.44;;;3.66;100.00
75157;BME280;63736;50.076;8.198;2023-02-01T06:32:22;99918.88;;;3.53;100.00
75157;BME280;63736;50.076;8.198;2023-02-01T06:34:48;99913.91;;;3.46;100.00
75157;BME280;63736;50.076;8.198;2023-02-01T06:37:13;99902.69;;;3.41;100.00
75157;BME280;63736;50.076;8.198;2023-02-01T06:39:39;99902.06;;;3.36;100.00
75157;BME280;63736;50.076;8.198;2023-02-01T06:42:04;99905.63;;;3.35;100.00
75157;BME280;63736;50.076;8.198;2023-02-01T06:44:29;99899.72;;;3.30;100.00
75157;BME280;63736;50.076;8.198;2023-02-01T06:46:55;99896.34;;;3.26;100.00
75157;BME280;63736;50.076;8.198;2023-02-01T06:49:20;99905.06;;;3.28;100.00
75157;BME280;63736;50.076;8.198;2023-02-01T06:51:46;99904.16;;;3.29;100.00
75157;BME280;63736;50.076;8.198;2023-02-01T06:54:11;99909.44;;;3.29;100.00
75157;BME280;63736;50.076;8.198;2023-02-01T06:56:37;99908.06;;;3.40;100.00
75157;BME280;63736;50.076;8.198;2023-02-01T06:59:06;99904.72;;;3.54;100.00
75157;BME280;63736;50.076;8.198;2023-02-01T07:01:32;99909.63;;;3.61;100.00
75157;BME280;63736;50.076;8.198;2023-02-01T07:03:57;99906.63;;;3.69;100.00
75157;BME280;63736;50.076;8.198;2023-02-01T07:06:23;99910.53;;;3.79;100.00
75157;BME280;63736;50.076;8.198;2023-02-01T07:08:48;99894.38;;;3.86;100.00
75157;BME280;63736;50.076;8.198;2023-02-01T07:11:15;99893.19;;;3.91;100.00
75157;BME280;63736;50.076;8.198;2023-02-01T07:13:41;99898.44;;;3.93;100.00
75157;BME280;63736;50.076;8.198;2023-02-01T07:16:10;99909.84;;;3.93;100.00
75157;BME280;63736;50.076;8.198;2023-02-01T07:18:36;99902.75;;;3.94;100.00
75157;BME280;63736;50.076;8.198;2023-02-01T07:21:01;99907.13;;;3.95;100.00
75157;BME280;63736;50.076;8.198;2023-02-01T07:23:27;99913.19;;;3.97;100.00
75157;BME280;63736;50.076;8.198;2023-02-01T07:25:57;99911.31;;;3.99;100.00
75157;BME280;63736;50.076;8.198;2023-02-01T07:28:23;99908.66;;;3.99;100.00
75157;BME280;63736;50.076;8.198;2023-02-01T07:30:48;99910.38;;;4.00;100.00
75157;BME280;63736;50.076;8.198;2023-02-01T07:33:18;99919.03;;;4.04;100.00
75157;BME280;63736;50.076;8.198;2023-02-01T07:35:43;99922.28;;;4.09;100.00
75157;BME280;63736;50.076;8.198;2023-02-01T07:38:09;99927.28;;;4.15;100.00
75157;BME280;63736;50.076;8.198;2023-02-01T07:40:34;99934.72;;;4.24;100.00
75157;BME280;63736;50.076;8.198;2023-02-01T07:42:59;99942.00;;;4.37;100.00
75157;BME280;63736;50.076;8.198;2023-02-01T07:45:24;99944.28;;;5.11;100.00
75157;BME280;63736;50.076;8.198;2023-02-01T07:47:51;99942.16;;;5.96;100.00
75157;BME280;63736;50.076;8.198;2023-02-01T07:50:17;99949.44;;;6.83;100.00
75157;BME280;63736;50.076;8.198;2023-02-01T07:52:42;99942.56;;;7.78;100.00
75157;BME280;63736;50.076;8.198;2023-02-01T07:55:08;99942.63;;;8.57;100.00
75157;BME280;63736;50.076;8.198;2023-02-01T07:57:33;99933.56;;;9.48;100.00
75157;BME280;63736;50.076;8.198;2023-02-01T07:59:59;99931.03;;;9.95;99.60
75157;BME280;63736;50.076;8.198;2023-02-01T08:02:42;99934.78;;;10.28;92.31
75157;BME280;63736;50.076;8.198;2023-02-01T08:05:08;99931.09;;;10.42;89.58
75157;BME280;63736;50.076;8.198;2023-02-01T08:07:34;99941.44;;;10.69;88.47
75157;BME280;63736;50.076;8.198;2023-02-01T08:09:59;99938.13;;;10.43;86.57
75157;BME280;63736;50.076;8.198;2023-02-01T08:12:25;99934.53;;;10.89;83.66
75157;BME280;63736;50.076;8.198;2023-02-01T08:14:50;99942.53;;;11.23;77.54
75157;BME280;63736;50.076;8.198;2023-02-01T08:17:15;99938.13;;;11.45;74.72
75157;BME280;63736;50.076;8.198;2023-02-01T08:19:41;99939.47;;;11.95;71.41
75157;BME280;63736;50.076;8.198;2023-02-01T08:22:06;99931.66;;;12.03;69.29
75157;BME280;63736;50.076;8.198;2023-02-01T08:24:33;99947.13;;;11.44;70.99
75157;BME280;63736;50.076;8.198;2023-02-01T08:27:00;99938.38;;;11.97;70.05
75157;BME280;63736;50.076;8.198;2023-02-01T08:29:25;99937.38;;;12.31;66.56
75157;BME280;63736;50.076;8.198;2023-02-01T08:31:51;99947.84;;;12.76;65.06
75157;BME280;63736;50.076;8.198;2023-02-01T08:34:16;99940.84;;;12.85;63.37
75157;BME280;63736;50.076;8.198;2023-02-01T08:36:42;99940.69;;;12.65;62.92
75157;BME280;63736;50.076;8.198;2023-02-01T08:39:09;99953.06;;;12.78;62.74
75157;BME280;63736;50.076;8.198;2023-02-01T08:41:36;99954.69;;;12.69;63.78
75157;BME280;63736;50.076;8.198;2023-02-01T08:44:02;99956.66;;;12.67;62.46
75157;BME280;63736;50.076;8.198;2023-02-01T08:46:27;99966.47;;;12.56;61.95
75157;BME280;63736;50.076;8.198;2023-02-01T08:48:52;99971.50;;;11.85;64.75
75157;BME280;63736;50.076;8.198;2023-02-01T08:51:20;99976.44;;;11.12;67.70
75157;BME280;63736;50.076;8.198;2023-02-01T08:53:46;99969.72;;;10.25;71.01
75157;BME280;63736;50.076;8.198;2023-02-01T08:56:13;99981.88;;;9.56;76.67
75157;BME280;63736;50.076;8.198;2023-02-01T08:58:39;99981.81;;;9.19;82.85
75157;BME280;63736;50.076;8.198;2023-02-01T09:01:06;99980.47;;;8.88;85.25
75157;BME280;63736;50.076;8.198;2023-02-01T09:03:32;99978.19;;;8.43;87.67
75157;BME280;63736;50.076;8.198;2023-02-01T09:06:09;99979.47;;;8.10;90.04
75157;BME280;63736;50.076;8.198;2023-02-01T09:08:36;99977.28;;;7.89;93.81
75157;BME280;63736;50.076;8.198;2023-02-01T09:11:05;99976.47;;;7.74;94.87
75157;BME280;63736;50.076;8.198;2023-02-01T09:13:31;99979.94;;;7.62;95.18
75157;BME280;63736;50.076;8.198;2023-02-01T09:15:56;99999.88;;;7.55;97.11
75157;BME280;63736;50.076;8.198;2023-02-01T09:18:23;100005.03;;;7.43;98.32
75157;BME280;63736;50.076;8.198;2023-02-01T09:20:48;100000.97;;;7.38;100.00
75157;BME280;63736;50.076;8.198;2023-02-01T09:23:13;100001.34;;;7.32;100.00
75157;BME280;63736;50.076;8.198;2023-02-01T09:25:39;99997.16;;;7.27;100.00
75157;BME280;63736;50.076;8.198;2023-02-01T09:28:05;100014.06;;;7.26;100.00
75157;BME280;63736;50.076;8.198;2023-02-01T09:30:33;100018.53;;;7.26;100.00
75157;BME280;63736;50.076;8.198;2023-02-01T09:32:59;100027.25;;;7.28;100.00
75157;BME280;63736;50.076;8.198;2023-02-01T09:35:24;100028.84;;;7.31;100.00
75157;BME280;63736;50.076;8.198;2023-02-01T09:37:50;100029.53;;;7.34;100.00
75157;BME280;63736;50.076;8.198;2023-02-01T09:40:17;100038.63;;;7.30;99.49
75157;BME280;63736;50.076;8.198;2023-02-01T09:48:15;100040.06;;;7.21;99.31
75157;BME280;63736;50.076;8.198;2023-02-01T09:50:46;100045.47;;;7.20;100.00
75157;BME280;63736;50.076;8.198;2023-02-01T09:53:29;100044.44;;;7.22;100.00
75157;BME280;63736;50.076;8.198;2023-02-01T09:56:04;100041.50;;;7.27;100.00
75157;BME280;63736;50.076;8.198;2023-02-01T10:00:58;100026.97;;;7.33;100.00
75157;BME280;63736;50.076;8.198;2023-02-01T10:03:28;100032.75;;;7.39;100.00
75157;BME280;63736;50.076;8.198;2023-02-01T10:06:10;100028.09;;;7.43;100.00
75157;BME280;63736;50.076;8.198;2023-02-01T10:08:53;100034.72;;;7.50;100.00
75157;BME280;63736;50.076;8.198;2023-02-01T10:22:10;100023.84;;;7.82;100.00
75157;BME280;63736;50.076;8.198;2023-02-01T10:24:49;100016.81;;;7.81;100.00
75157;BME280;63736;50.076;8.198;2023-02-01T10:27:36;100019.28;;;7.84;100.00
75157;BME280;63736;50.076;8.198;2023-02-01T10:30:27;100012.94;;;7.87;99.53
75157;BME280;63736;50.076;8.198;2023-02-01T10:32:56;100014.59;;;7.88;99.67
75157;BME280;63736;50.076;8.198;2023-02-01T10:35:28;100018.13;;;7.88;98.77
75157;BME280;63736;50.076;8.198;2023-02-01T10:38:00;100018.31;;;7.85;95.45
75157;BME280;63736;50.076;8.198;2023-02-01T10:40:26;100018.63;;;7.81;94.77
75157;BME280;63736;50.076;8.198;2023-02-01T10:42:54;100008.28;;;7.76;93.97
75157;BME280;63736;50.076;8.198;2023-02-01T10:45:24;100003.34;;;7.70;94.80
75157;BME280;63736;50.076;8.198;2023-02-01T10:47:51;99998.34;;;7.65;95.20
75157;BME280;63736;50.076;8.198;2023-02-01T10:50:35;99993.31;;;7.60;95.95
75157;BME280;63736;50.076;8.198;2023-02-01T10:53:12;99995.13;;;7.60;96.04
75157;BME280;63736;50.076;8.198;2023-02-01T10:55:46;99991.63;;;7.59;96.81
75157;BME280;63736;50.076;8.198;2023-02-01T10:58:19;99982.13;;;7.55;97.50
75157;BME280;63736;50.076;8.198;2023-02-01T11:00:48;99985.81;;;7.53;96.73
75157;BME280;63736;50.076;8.198;2023-02-01T11:06:10;99985.81;;;7.53;97.61
75157;BME280;63736;50.076;8.198;2023-02-01T11:08:45;99984.03;;;7.53;97.52
75157;BME280;63736;50.076;8.198;2023-02-01T11:11:11;99993.06;;;7.51;96.64
75157;BME280;63736;50.076;8.198;2023-02-01T11:13:38;99978.06;;;7.50;96.08
75157;BME280;63736;50.076;8.198;2023-02-01T11:16:04;99979.78;;;7.51;96.97
75157;BME280;63736;50.076;8.198;2023-02-01T11:18:35;99975.19;;;7.53;95.50
75157;BME280;63736;50.076;8.198;2023-02-01T11:21:01;99971.59;;;7.54;94.20
75157;BME280;63736;50.076;8.198;2023-02-01T11:23:28;99963.34;;;7.58;94.60
75157;BME280;63736;50.076;8.198;2023-02-01T11:25:57;99968.78;;;7.70;96.09
75157;BME280;63736;50.076;8.198;2023-02-01T11:28:27;99961.84;;;7.82;95.85
75157;BME280;63736;50.076;8.198;2023-02-01T11:30:56;99953.16;;;7.92;95.52
75157;BME280;63736;50.076;8.198;2023-02-01T11:33:31;99959.56;;;8.03;93.59
75157;BME280;63736;50.076;8.198;2023-02-01T11:36:05;99959.44;;;8.04;90.65
75157;BME280;63736;50.076;8.198;2023-02-01T11:38:33;99956.78;;;8.04;89.59
75157;BME280;63736;50.076;8.198;2023-02-01T11:41:24;99963.72;;;8.07;90.41
75157;BME280;63736;50.076;8.198;2023-02-01T11:43:57;99969.59;;;8.12;91.17
75157;BME280;63736;50.076;8.198;2023-02-01T11:46:32;99969.81;;;8.09;88.65
75157;BME280;63736;50.076;8.198;2023-02-01T11:49:19;99963.06;;;8.03;88.51
75157;BME280;63736;50.076;8.198;2023-02-01T11:52:22;99954.75;;;7.95;88.39
75157;BME280;63736;50.076;8.198;2023-02-01T11:55:05;99963.78;;;7.92;90.06
75157;BME280;63736;50.076;8.198;2023-02-01T11:57:58;99958.69;;;7.89;88.69
75157;BME280;63736;50.076;8.198;2023-02-01T12:03:13;99944.84;;;7.97;88.09
75157;BME280;63736;50.076;8.198;2023-02-01T12:08:50;99935.63;;;8.03;87.61
75157;BME280;63736;50.076;8.198;2023-02-01T12:11:33;99923.19;;;8.16;89.75
75157;BME280;63736;50.076;8.198;2023-02-01T12:14:23;99922.66;;;8.24;89.99
75157;BME280;63736;50.076;8.198;2023-02-01T12:20:09;99928.97;;;8.36;91.53
75157;BME280;63736;50.076;8.198;2023-02-01T12:22:55;99925.13;;;8.40;89.87
75157;BME280;63736;50.076;8.198;2023-02-01T12:28:08;99934.81;;;8.41;89.75
75157;BME280;63736;50.076;8.198;2023-02-01T12:31:23;99906.19;;;8.44;88.78
75157;BME280;63736;50.076;8.198;2023-02-01T12:33:56;99903.22;;;8.36;87.25
75157;BME280;63736;50.076;8.198;2023-02-01T12:36:46;99917.13;;;8.40;87.84
75157;BME280;63736;50.076;8.198;2023-02-01T12:39:34;99907.66;;;8.36;87.18
75157;BME280;63736;50.076;8.198;2023-02-01T12:42:18;99902.34;;;8.36;87.82
75157;BME280;63736;50.076;8.198;2023-02-01T12:44:53;99892.22;;;8.41;86.42
75157;BME280;63736;50.076;8.198;2023-02-01T12:47:31;99891.41;;;8.40;85.71
75157;BME280;63736;50.076;8.198;2023-02-01T12:50:03;99895.66;;;8.43;85.32
75157;BME280;63736;50.076;8.198;2023-02-01T12:52:38;99893.00;;;8.43;85.10
75157;BME280;63736;50.076;8.198;2023-02-01T12:55:19;99894.78;;;8.42;84.00
75157;BME280;63736;50.076;8.198;2023-02-01T13:01:01;99887.97;;;8.38;84.66
75157;BME280;63736;50.076;8.198;2023-02-01T13:03:44;99887.13;;;8.38;84.01
75157;BME280;63736;50.076;8.198;2023-02-01T13:06:31;99886.19;;;8.52;84.96
75157;BME280;63736;50.076;8.198;2023-02-01T13:11:34;99873.63;;;8.67;83.05
75157;BME280;63736;50.076;8.198;2023-02-01T13:14:25;99873.31;;;8.71;82.79
75157;BME280;63736;50.076;8.198;2023-02-01T13:17:01;99877.34;;;8.77;82.44
75157;BME280;63736;50.076;8.198;2023-02-01T13:19:41;99884.50;;;8.76;80.95
75157;BME280;63736;50.076;8.198;2023-02-01T13:22:15;99881.31;;;8.71;81.32
75157;BME280;63736;50.076;8.198;2023-02-01T13:24:50;99871.72;;;8.69;79.15
75157;BME280;63736;50.076;8.198;2023-02-01T13:27:17;99878.19;;;8.65;78.67
75157;BME280;63736;50.076;8.198;2023-02-01T13:29:55;99888.13;;;8.63;78.41
75157;BME280;63736;50.076;8.198;2023-02-01T13:36:08;99874.16;;;8.59;77.83
75157;BME280;63736;50.076;8.198;2023-02-01T13:38:18;99871.19;;;8.64;78.34
75157;BME280;63736;50.076;8.198;2023-02-01T13:44:05;99871.06;;;8.78;79.53
75157;BME280;63736;50.076;8.198;2023-02-01T13:46:45;99876.81;;;8.85;78.24
75157;BME280;63736;50.076;8.198;2023-02-01T13:49:38;99891.28;;;8.93;78.60
75157;BME280;63736;50.076;8.198;2023-02-01T13:52:05;99887.63;;;8.95;78.08
75157;BME280;63736;50.076;8.198;2023-02-01T13:54:39;99879.22;;;8.88;76.61
75157;BME280;63736;50.076;8.198;2023-02-01T13:57:13;99879.88;;;8.79;76.91
75157;BME280;63736;50.076;8.198;2023-02-01T13:59:52;99878.09;;;8.66;76.55
75157;BME280;63736;50.076;8.198;2023-02-01T14:05:06;99886.28;;;8.50;77.85
75157;BME280;63736;50.076;8.198;2023-02-01T14:07:33;99883.75;;;8.49;79.61
75157;BME280;63736;50.076;8.198;2023-02-01T14:09:58;99875.88;;;8.47;79.75
75157;BME280;63736;50.076;8.198;2023-02-01T14:12:43;99870.56;;;8.47;79.14
75157;BME280;63736;50.076;8.198;2023-02-01T14:15:20;99865.75;;;8.52;79.49
75157;BME280;63736;50.076;8.198;2023-02-01T14:17:47;99858.28;;;8.57;78.63
75157;BME280;63736;50.076;8.198;2023-02-01T14:20:44;99885.75;;;8.58;78.71
75157;BME280;63736;50.076;8.198;2023-02-01T14:23:14;99861.50;;;8.63;77.87
75157;BME280;63736;50.076;8.198;2023-02-01T14:25:40;99853.16;;;8.67;78.53
75157;BME280;63736;50.076;8.198;2023-02-01T14:28:32;99858.28;;;8.70;79.41
75157;BME280;63736;50.076;8.198;2023-02-01T14:30:57;99862.44;;;8.74;78.69
75157;BME280;63736;50.076;8.198;2023-02-01T14:33:25;99860.59;;;8.75;78.66
75157;BME280;63736;50.076;8.198;2023-02-01T14:36:07;99863.72;;;8.69;77.60
75157;BME280;63736;50.076;8.198;2023-02-01T14:38:35;99864.03;;;8.64;77.71